Time;durP1;ratioP1;P1;durP2;ratioP2;P2;SDS_P1;SDS_P2;PMS_P1;PMS_P2;Temp;Humidity;BMP_temperature;BMP_pressure;BME280_temperature;BME280_humidity;BME280_pressure;Samples;Min_cycle;Max_cycle;Signal;HPM_P1;HPM_P2
2022/12/08 00:01:07;;;;;;;;;56.25;42.50;;;;;5.99;71.12;101050.69;4990061;27;45813;-64
2022/12/08 00:03:33;;;;;;;;;53.25;43.75;;;;;5.95;71.73;101054.91;4973054;28;45379;-71
2022/12/08 00:11:29;;;;;;;;;55.00;42.50;;;;;5.79;71.70;101015.47;4995355;27;45330;-67
2022/12/08 00:13:55;;;;;;;;;53.00;42.75;;;;;5.77;72.06;101014.56;4977196;28;45267;-70
2022/12/08 00:16:21;;;;;;;;;52.00;40.00;;;;;5.81;72.47;101032.84;4990297;27;45543;-63
2022/12/08 00:18:46;;;;;;;;;59.50;45.00;;;;;5.77;72.00;101032.75;4993060;27;46525;-65
2022/12/08 00:21:12;;;;;;;;;58.75;44.50;;;;;5.78;72.94;101040.59;4977225;27;45503;-69
2022/12/08 00:23:37;;;;;;;;;51.00;41.75;;;;;5.72;73.09;101030.91;4994922;28;45573;-70
2022/12/08 00:26:04;;;;;;;;;63.00;46.50;;;;;5.70;72.77;101021.31;4972731;28;45683;-67
2022/12/08 00:28:31;;;;;;;;;57.00;44.25;;;;;5.76;72.69;101024.06;4972550;27;46171;-63
2022/12/08 00:30:56;;;;;;;;;63.25;47.00;;;;;5.81;73.09;101021.59;4991076;27;45460;-64
2022/12/08 00:33:22;;;;;;;;;59.25;46.50;;;;;5.75;72.85;101006.72;4991493;27;45495;-64
2022/12/08 00:35:48;;;;;;;;;52.00;40.75;;;;;5.76;73.08;101007.59;4991818;27;45510;-63
2022/12/08 00:38:13;;;;;;;;;56.25;42.50;;;;;5.88;72.75;101013.97;4972901;28;46181;-64
2022/12/08 00:40:47;;;;;;;;;59.00;47.00;;;;;5.85;72.39;101010.44;4990767;27;45485;-66
2022/12/08 00:43:13;;;;;;;;;63.25;48.75;;;;;5.91;72.83;101018.41;4973720;27;45531;-68
2022/12/08 00:45:39;;;;;;;;;63.25;49.00;;;;;5.83;72.80;101006.91;4991515;27;45458;-69
2022/12/08 00:48:05;;;;;;;;;58.50;46.25;;;;;5.79;72.71;100998.16;4991186;27;45506;-68
2022/12/08 00:50:31;;;;;;;;;56.00;46.00;;;;;5.80;72.81;101005.13;4991686;27;45728;-72
2022/12/08 00:52:56;;;;;;;;;58.50;45.75;;;;;5.75;72.80;100980.72;4976511;27;45350;-72
2022/12/08 00:55:23;;;;;;;;;62.00;47.50;;;;;5.95;73.06;100997.72;4993047;27;45591;-70
2022/12/08 00:57:48;;;;;;;;;67.67;51.00;;;;;5.84;73.05;100980.09;4993490;27;46168;-74
2022/12/08 01:00:14;;;;;;;;;64.33;47.00;;;;;5.84;72.88;100993.97;4992728;27;45944;-71
2022/12/08 01:02:41;;;;;;;;;68.67;51.00;;;;;5.90;73.31;101001.91;4991508;27;45473;-61
2022/12/08 01:05:07;;;;;;;;;70.33;52.00;;;;;5.81;73.29;100977.41;4991155;27;45346;-70
2022/12/08 01:07:32;;;;;;;;;66.00;51.67;;;;;5.83;73.11;100970.53;4976260;28;46589;-63
2022/12/08 01:09:58;;;;;;;;;65.33;51.00;;;;;5.98;73.29;100990.84;4990784;27;45658;-72
2022/12/08 01:12:24;;;;;;;;;63.67;50.00;;;;;5.95;73.18;100983.84;4992449;27;45378;-65
2022/12/08 01:14:50;;;;;;;;;65.25;49.00;;;;;5.97;73.15;100979.56;4995060;27;45538;-63
2022/12/08 01:17:16;;;;;;;;;66.00;50.33;;;;;6.00;73.73;100984.84;4983838;27;46153;-62
2022/12/08 01:19:41;;;;;;;;;64.67;51.00;;;;;5.97;73.15;100973.50;4959027;27;45496;-62
2022/12/08 01:22:07;;;;;;;;;69.67;52.67;;;;;5.81;73.21;100964.41;4989980;27;45936;-65
2022/12/08 01:24:33;;;;;;;;;70.33;51.33;;;;;5.86;73.80;100965.38;4990302;27;45835;-63
2022/12/08 01:26:58;;;;;;;;;70.00;52.00;;;;;5.77;73.80;100952.19;4989120;28;45830;-64
2022/12/08 01:29:25;;;;;;;;;73.33;52.00;;;;;5.95;73.86;100978.66;4991034;27;45833;-63
2022/12/08 01:31:51;;;;;;;;;64.67;50.67;;;;;5.83;73.16;100953.19;4994542;27;45490;-62
2022/12/08 01:34:16;;;;;;;;;67.33;52.00;;;;;5.98;73.13;100968.34;4997275;27;45496;-62
2022/12/08 01:36:43;;;;;;;;;69.00;53.00;;;;;6.07;73.61;100972.88;4997049;27;46252;-63
2022/12/08 01:39:15;;;;;;;;;68.67;51.67;;;;;6.10;73.00;100960.84;4991763;27;45318;-63
2022/12/08 01:41:42;;;;;;;;;70.33;52.00;;;;;6.19;72.50;100967.97;4991625;27;45424;-61
2022/12/08 01:44:09;;;;;;;;;62.50;49.25;;;;;6.22;72.62;100962.84;4992663;27;45470;-62
2022/12/08 01:46:37;;;;;;;;;63.50;49.00;;;;;6.20;72.20;100956.72;4992935;27;46342;-62
2022/12/08 01:49:21;;;;;;;;;63.75;49.00;;;;;6.21;72.03;100957.59;4995301;27;45533;-63
2022/12/08 01:52:04;;;;;;;;;59.75;47.75;;;;;6.20;72.19;100966.25;4974023;28;45836;-63
2022/12/08 01:54:35;;;;;;;;;63.25;48.25;;;;;6.21;71.94;100953.28;4991343;27;45427;-64
2022/12/08 01:57:19;;;;;;;;;60.25;45.00;;;;;6.34;71.46;100962.25;4990442;27;46704;-63
2022/12/08 01:59:51;;;;;;;;;51.00;39.00;;;;;6.40;71.55;100967.56;4991586;27;45529;-63
2022/12/08 02:02:17;;;;;;;;;58.25;45.00;;;;;6.41;71.24;100971.06;4990593;27;45585;-64
2022/12/08 02:04:43;;;;;;;;;60.75;45.00;;;;;6.39;71.11;100965.84;4991316;27;45987;-63
2022/12/08 02:07:12;;;;;;;;;58.00;45.00;;;;;6.33;70.94;100937.94;4991439;27;46619;-64
2022/12/08 02:09:39;;;;;;;;;57.50;41.50;;;;;6.40;71.05;100957.16;5045747;27;45383;-68
2022/12/08 02:12:05;;;;;;;;;45.75;36.50;;;;;6.35;71.34;100957.06;4991139;27;45472;-62
2022/12/08 02:14:31;;;;;;;;;59.00;44.75;;;;;6.29;71.29;100946.53;4991911;27;45635;-67
2022/12/08 02:17:05;;;;;;;;;56.50;43.50;;;;;6.37;71.29;100955.38;4991456;27;45359;-63
2022/12/08 02:20:03;;;;;;;;;58.25;44.50;;;;;6.36;71.28;100950.16;4976520;28;45708;-63
2022/12/08 02:22:41;;;;;;;;;58.00;44.00;;;;;6.36;70.82;100953.63;4989512;27;45791;-63
2022/12/08 02:25:14;;;;;;;;;56.75;45.00;;;;;6.40;70.89;100958.91;4992173;27;45342;-62
2022/12/08 02:28:02;;;;;;;;;56.00;44.50;;;;;6.35;70.64;100954.47;4991488;27;45885;-65
2022/12/08 02:30:59;;;;;;;;;53.75;44.00;;;;;6.40;71.33;100962.38;4992116;27;45580;-63
2022/12/08 02:33:36;;;;;;;;;58.25;45.75;;;;;6.38;70.99;100956.25;5020970;28;45707;-63
2022/12/08 02:36:38;;;;;;;;;58.00;44.00;;;;;6.36;70.78;100950.16;4989867;27;45463;-63
2022/12/08 02:39:24;;;;;;;;;57.00;43.50;;;;;6.30;71.02;100942.22;4989948;27;46448;-62
2022/12/08 02:41:50;;;;;;;;;56.75;44.75;;;;;6.27;70.79;100936.94;4993474;27;45447;-63
2022/12/08 02:44:30;;;;;;;;;52.50;43.00;;;;;6.10;71.03;100929.63;4989547;27;45391;-64
2022/12/08 02:47:07;;;;;;;;;54.25;43.00;;;;;6.15;70.97;100927.13;4990506;27;45549;-64
2022/12/08 02:49:35;;;;;;;;;58.00;44.00;;;;;6.11;71.33;100917.50;4990213;27;45413;-63
2022/12/08 02:52:23;;;;;;;;;54.50;43.75;;;;;6.25;71.08;100929.09;4991541;27;45494;-62
2022/12/08 02:54:54;;;;;;;;;58.75;44.00;;;;;6.24;70.92;100921.25;5003390;27;45775;-64
2022/12/08 02:57:41;;;;;;;;;55.25;42.50;;;;;6.30;71.27;100927.47;4996519;27;45391;-62
2022/12/08 03:00:15;;;;;;;;;57.25;43.00;;;;;6.33;70.89;100929.25;4978652;28;47866;-63
2022/12/08 03:02:48;;;;;;;;;58.00;44.00;;;;;6.31;70.36;100917.94;4994447;27;45512;-63
2022/12/08 03:05:20;;;;;;;;;55.25;44.75;;;;;6.29;71.03;100925.72;4991592;27;46310;-63
2022/12/08 03:08:01;;;;;;;;;59.25;45.00;;;;;6.22;70.91;100918.63;4990173;27;45794;-63
2022/12/08 03:10:33;;;;;;;;;55.50;44.25;;;;;6.19;71.40;100922.88;5045723;27;45891;-63
2022/12/08 03:13:07;;;;;;;;;58.75;44.75;;;;;6.11;71.27;100899.28;4990750;27;45634;-62
2022/12/08 03:15:35;;;;;;;;;55.00;43.50;;;;;6.21;70.97;100914.25;4972802;28;45571;-63
2022/12/08 03:18:04;;;;;;;;;55.50;42.75;;;;;6.27;70.82;100909.19;4972509;27;46768;-64
2022/12/08 03:20:33;;;;;;;;;50.75;41.00;;;;;6.16;70.73;100898.53;4989878;27;46653;-63
2022/12/08 03:23:04;;;;;;;;;53.00;41.75;;;;;6.07;71.04;100881.84;4991084;27;45560;-71
2022/12/08 03:25:36;;;;;;;;;54.00;41.50;;;;;6.23;70.40;100898.69;4991255;27;45569;-69
2022/12/08 20:39:04;;;;;;;;;55.00;42.33;;;;;2.75;75.06;100367.81;5107680;27;45430;-64
2022/12/08 20:41:32;;;;;;;;;55.75;42.25;;;;;2.97;75.80;100388.28;5094329;27;45400;-61
2022/12/08 20:43:58;;;;;;;;;55.00;44.00;;;;;3.13;75.20;100371.44;5105333;27;45411;-64
2022/12/08 20:46:26;;;;;;;;;54.50;41.50;;;;;3.39;73.68;100389.34;5070489;27;45539;-65
2022/12/08 20:49:16;;;;;;;;;50.00;42.00;;;;;3.58;73.66;100375.16;5079434;27;45338;-68
2022/12/08 20:51:43;;;;;;;;;54.25;42.75;;;;;3.67;72.68;100371.91;5088862;27;45366;-63
2022/12/08 20:54:09;;;;;;;;;50.75;41.00;;;;;3.82;73.11;100367.13;5084789;27;46523;-65
2022/12/08 20:56:35;;;;;;;;;49.75;38.00;;;;;3.84;71.44;100349.84;5090645;27;45584;-70
2022/12/08 20:59:01;;;;;;;;;48.25;39.25;;;;;4.01;71.71;100352.81;5090952;27;46208;-66
2022/12/08 21:01:27;;;;;;;;;52.50;39.00;;;;;4.18;71.37;100358.41;5082630;27;45564;-73
2022/12/08 21:03:52;;;;;;;;;47.00;39.25;;;;;4.28;71.32;100354.31;5085183;27;45530;-66
2022/12/08 21:06:23;;;;;;;;;45.75;38.25;;;;;4.32;70.59;100341.44;5085136;27;46153;-65
2022/12/08 21:08:50;;;;;;;;;44.75;37.25;;;;;4.46;70.61;100344.28;5091392;27;48023;-70
2022/12/08 21:11:16;;;;;;;;;46.25;35.75;;;;;4.57;70.58;100349.72;5090188;27;45394;-63
2022/12/08 21:13:42;;;;;;;;;51.00;39.50;;;;;4.61;70.33;100347.22;5084689;27;45511;-62
2022/12/08 21:16:11;;;;;;;;;53.25;40.00;;;;;4.64;70.07;100342.06;5079748;27;45493;-67
2022/12/08 21:18:37;;;;;;;;;56.25;41.25;;;;;4.71;69.71;100349.97;5085547;27;46797;-67
2022/12/08 21:21:12;;;;;;;;;53.25;40.75;;;;;4.76;69.78;100337.97;5084269;27;45625;-66
2022/12/08 21:23:39;;;;;;;;;54.25;42.00;;;;;4.80;69.17;100335.47;5092516;27;45690;-70
2022/12/08 21:26:13;;;;;;;;;53.50;41.25;;;;;4.83;69.71;100345.03;5111256;27;45354;-62
2022/12/08 21:28:39;;;;;;;;;53.50;41.25;;;;;4.83;69.58;100345.03;5082762;27;46603;-63
2022/12/08 21:31:10;;;;;;;;;52.25;43.00;;;;;4.81;69.81;100336.34;5085206;27;45570;-65
2022/12/08 21:33:36;;;;;;;;;53.25;40.25;;;;;4.96;69.40;100343.53;5085064;27;45657;-63
2022/12/08 21:36:08;;;;;;;;;50.25;41.00;;;;;4.90;69.69;100323.53;5089149;27;45436;-64
2022/12/08 21:38:38;;;;;;;;;56.50;42.75;;;;;5.04;69.78;100337.63;5105788;27;46919;-69
2022/12/08 21:41:07;;;;;;;;;49.00;37.25;;;;;5.07;69.33;100344.59;5105504;27;45936;-69
2022/12/08 21:43:34;;;;;;;;;55.50;42.50;;;;;5.06;68.53;100338.53;5088282;27;45498;-62
2022/12/08 21:46:00;;;;;;;;;53.50;42.00;;;;;5.08;69.04;100329.06;5082546;27;45568;-71
2022/12/08 21:48:26;;;;;;;;;58.75;41.50;;;;;5.13;69.65;100342.13;5077981;27;45589;-64
2022/12/08 21:50:52;;;;;;;;;57.50;44.00;;;;;5.10;68.75;100326.47;5069006;27;45515;-65
2022/12/08 21:53:19;;;;;;;;;54.75;40.00;;;;;5.21;69.03;100337.06;5072220;27;45455;-64
2022/12/08 21:55:46;;;;;;;;;57.75;43.00;;;;;5.18;68.74;100335.28;5071192;27;45352;-61
2022/12/08 21:58:15;;;;;;;;;63.25;47.25;;;;;5.16;68.95;100329.19;5090869;27;48021;-63
2022/12/08 22:00:41;;;;;;;;;59.75;47.00;;;;;4.99;68.81;100313.31;5071614;27;45526;-62
2022/12/08 22:03:12;;;;;;;;;56.75;43.75;;;;;4.98;68.66;100316.75;5069855;27;45537;-67
2022/12/08 22:05:38;;;;;;;;;58.00;43.75;;;;;5.07;68.71;100335.09;5070055;28;45501;-77
2022/12/08 22:08:05;;;;;;;;;62.50;46.00;;;;;4.81;69.29;100293.09;5055195;28;46870;-74
2022/12/08 22:10:39;;;;;;;;;56.25;44.50;;;;;5.10;69.05;100327.38;5071678;28;45917;-72
2022/12/08 22:13:05;;;;;;;;;58.50;45.00;;;;;5.14;69.24;100328.28;5068819;27;45417;-62
2022/12/08 22:15:31;;;;;;;;;58.00;45.25;;;;;5.13;69.15;100305.78;5071375;27;45506;-71
2022/12/08 22:17:57;;;;;;;;;61.50;46.00;;;;;5.19;68.90;100320.59;5071705;27;46039;-64
2022/12/08 22:20:23;;;;;;;;;61.75;47.00;;;;;5.09;69.14;100303.97;5071193;27;45918;-64
2022/12/08 22:22:48;;;;;;;;;63.00;47.75;;;;;5.09;69.53;100303.97;5073398;28;45369;-66
2022/12/08 22:25:14;;;;;;;;;65.00;49.00;;;;;5.12;69.54;100306.63;5065182;27;45349;-78
2022/12/08 22:27:42;;;;;;;;;66.25;50.75;;;;;4.93;69.47;100274.28;5063421;27;46716;-77
2022/12/08 22:30:08;;;;;;;;;65.00;51.25;;;;;5.20;69.72;100315.41;5067558;27;45540;-66
2022/12/08 22:32:34;;;;;;;;;69.25;51.25;;;;;5.16;68.97;100310.16;5066967;28;45548;-69
2022/12/08 22:35:00;;;;;;;;;63.00;48.00;;;;;5.07;69.64;100313.44;5070095;27;45782;-65
2022/12/08 22:37:27;;;;;;;;;67.00;52.00;;;;;5.14;69.94;100322.22;5086666;27;46096;-70
2022/12/08 22:39:52;;;;;;;;;64.00;49.00;;;;;5.12;69.21;100318.72;5072695;27;45959;-67
2022/12/08 22:42:18;;;;;;;;;67.75;48.75;;;;;5.14;69.69;100327.41;5058132;27;45682;-67
2022/12/08 22:44:43;;;;;;;;;62.75;48.50;;;;;5.12;69.46;100310.94;5076169;27;45921;-66
2022/12/08 22:47:09;;;;;;;;;65.50;49.00;;;;;5.17;69.84;100327.47;5073584;27;46176;-64
2022/12/08 22:49:35;;;;;;;;;64.50;47.50;;;;;5.19;69.72;100315.38;5097668;27;45583;-68
2022/12/08 22:52:01;;;;;;;;;57.50;45.75;;;;;5.13;69.38;100294.53;5058811;27;45341;-73
2022/12/08 22:54:29;;;;;;;;;59.00;46.75;;;;;5.17;69.37;100306.69;5096157;27;45569;-70
2022/12/08 22:56:55;;;;;;;;;63.25;47.00;;;;;5.15;69.77;100309.28;5072195;27;45511;-69
2022/12/08 22:59:24;;;;;;;;;63.50;47.00;;;;;5.22;70.12;100313.72;5080144;27;45444;-69
2022/12/08 23:01:52;;;;;;;;;64.50;49.00;;;;;5.26;69.71;100302.53;5071575;27;45509;-68
2022/12/08 23:04:18;;;;;;;;;63.50;50.00;;;;;5.17;69.51;100289.38;5064144;27;45253;-62
2022/12/08 23:06:43;;;;;;;;;62.50;47.25;;;;;5.26;70.00;100306.84;5057842;28;45970;-62
2022/12/08 23:09:09;;;;;;;;;65.25;47.50;;;;;5.27;70.72;100291.31;5067888;27;45996;-65
2022/12/08 23:11:34;;;;;;;;;60.75;46.25;;;;;5.31;70.51;100290.53;5070945;27;45492;-63
2022/12/08 23:14:00;;;;;;;;;64.50;48.50;;;;;5.39;69.93;100297.56;5074058;27;45588;-61
2022/12/08 23:16:26;;;;;;;;;68.50;48.50;;;;;5.35;69.74;100291.44;5071290;27;47826;-67
2022/12/08 23:18:51;;;;;;;;;53.00;41.00;;;;;5.25;69.97;100277.41;5070442;27;45479;-66
2022/12/08 23:21:18;;;;;;;;;61.00;45.75;;;;;5.28;70.53;100285.25;5074608;27;45472;-63
2022/12/08 23:23:45;;;;;;;;;66.00;47.00;;;;;5.28;69.93;100285.25;5073465;27;45576;-61
2022/12/08 23:26:23;;;;;;;;;56.50;42.75;;;;;5.27;69.96;100288.72;5055879;27;45571;-73
2022/12/08 23:28:49;;;;;;;;;60.50;45.50;;;;;5.26;70.08;100281.75;5057163;27;45457;-64
2022/12/08 23:31:15;;;;;;;;;60.50;45.25;;;;;5.22;70.06;100284.28;5056263;27;45654;-63
2022/12/08 23:33:41;;;;;;;;;64.00;45.00;;;;;5.20;70.65;100291.19;5061393;27;45499;-63
2022/12/08 23:36:08;;;;;;;;;60.75;45.75;;;;;5.12;70.46;100277.19;5062111;27;45341;-66
2022/12/08 23:38:34;;;;;;;;;63.50;44.50;;;;;5.14;70.82;100280.69;5056841;27;45417;-64
2022/12/08 23:41:02;;;;;;;;;54.75;42.50;;;;;5.19;71.03;100285.09;5052495;28;45705;-64
2022/12/08 23:43:27;;;;;;;;;51.00;41.00;;;;;5.18;71.27;100272.13;5053933;27;45537;-63
2022/12/08 23:45:53;;;;;;;;;61.25;43.25;;;;;5.24;71.07;100273.09;5054331;27;45587;-65
2022/12/08 23:48:18;;;;;;;;;55.75;36.00;;;;;5.24;70.50;100273.09;5090341;27;45854;-63
2022/12/08 23:50:44;;;;;;;;;57.25;42.25;;;;;5.26;70.93;100275.69;5054995;28;45532;-68
2022/12/08 23:53:10;;;;;;;;;57.50;42.50;;;;;5.20;70.75;100273.88;5055811;27;45568;-69
2022/12/08 23:55:35;;;;;;;;;50.25;39.75;;;;;5.09;70.99;100271.09;5059584;27;47826;-62
2022/12/08 23:58:01;;;;;;;;;50.00;38.25;;;;;5.12;71.32;100274.59;5057288;28;45562;-61
